joomla templates top joomla templates template joomla

King Air Abend

Wetterbeurteilung mit Hilfe Webcam und ATIS

 

Webcam 1Webcam 2

(Zum vergrößern auf das Bild klicken)

Notam

C0137/18 - COBURG AFIS AND INFO FREQ CHANGED: NEW FREQ 128.680. 15 FEB 00:01 2018 UNTIL PERM. CREATED: 19 JAN 11:19 2018

C0132/18 - DIRECTION FINDING STATION (VDF) COMPLETELY WITHDRAWN. 15 FEB 00:01 2018 UNTIL PERM. CREATED: 19 JAN 10:58 2018

C3641/14 - CUSTOMS AVBL PPR, TEL 0049 9561 92098. 13 NOV 14:46 2014 UNTIL PERM. CREATED: 13 NOV 14:47 2014

Wetteranzeige

Aktuelles Platzwetter Stand 24.02.2018 17:27Z

AvgMinMax
Windrichtung6010110Deg
Windgeschwindigkeit7414kt
Sichtweite>10000m
Temperatur-4°C
Taupunkt/////°C
Feuchte/////%
QNH1023.6hPa
QFE969.7hPa
WolkenSKC

Aerodrome Terminal Information Service (ATIS) Coburg

METAR
EDQC 241720Z AUTO 07008KT 030V120 CAVOK M04/// Q1023=

METAR und TAF der Umgebung

[Quelle: ADDS]
METAR
EDDF 241720Z 04020G30KT CAVOK 00/M10 Q1023 R88/0///95 NOSIG =
EDDN 241720Z 08009KT 040V120 CAVOK M01/M14 Q1022 NOSIG =
EDDE 241720Z 06011KT CAVOK M03/M12 Q1026 NOSIG =
TAF
EDDF 241700Z 2418/2524 04020G30KT CAVOK BECMG 2419/2421 04014KT TEMPO 2509/2518 04015G25KT =
EDDN 241700Z 2418/2518 06011KT CAVOK BECMG 2422/2424 06005KT BECMG 2508/2510 07011KT BECMG 2516/2518 05005KT =
EDDE 241700Z 2418/2518 05013G25KT CAVOK BECMG 2418/2419 06008KT =

Wetterverlauf

Windvorhersage

Verkehrslandeplatz Coburg Brandensteinsebene
Tower
Zur Brandensteinsebene
96450 Coburg

 

Telefon +49 (0) 95 61 / 9 20 98
Telefax +49 (0) 95 61 / 9 20 06
EMail tower@vlp-coburg.de